sensor_id;sensor_type;location;lat;lon;timestamp;pressure;altitude;pressure_sealevel;temperature;humidity
62895;BME280;49204;44.916;37.998;2022-10-16T00:01:48;101816.86;;;8.66;64.81
62895;BME280;49204;44.916;37.998;2022-10-16T00:04:16;101819.61;;;8.57;65.01
62895;BME280;49204;44.916;37.998;2022-10-16T00:06:45;101822.33;;;8.50;65.18
62895;BME280;49204;44.916;37.998;2022-10-16T00:09:14;101824.98;;;8.47;65.33
62895;BME280;49204;44.916;37.998;2022-10-16T00:11:43;101825.45;;;8.45;65.46
62895;BME280;49204;44.916;37.998;2022-10-16T00:14:14;101825.86;;;8.46;65.54
62895;BME280;49204;44.916;37.998;2022-10-16T00:16:43;101825.84;;;8.48;65.57
62895;BME280;49204;44.916;37.998;2022-10-16T00:19:12;101835.45;;;8.50;65.62
62895;BME280;49204;44.916;37.998;2022-10-16T00:21:41;101828.42;;;8.53;65.64
62895;BME280;49204;44.916;37.998;2022-10-16T00:24:10;101830.13;;;8.55;65.70
62895;BME280;49204;44.916;37.998;2022-10-16T00:26:40;101832.28;;;8.57;65.70
62895;BME280;49204;44.916;37.998;2022-10-16T00:29:09;101831.81;;;8.59;65.78
62895;BME280;49204;44.916;37.998;2022-10-16T00:31:38;101835.33;;;8.60;65.78
62895;BME280;49204;44.916;37.998;2022-10-16T00:34:07;101834.86;;;8.62;65.79
62895;BME280;49204;44.916;37.998;2022-10-16T00:36:35;101830.47;;;8.62;65.82
62895;BME280;49204;44.916;37.998;2022-10-16T00:39:04;101833.95;;;8.63;65.77
62895;BME280;49204;44.916;37.998;2022-10-16T00:41:33;101833.53;;;8.63;65.72
62895;BME280;49204;44.916;37.998;2022-10-16T00:44:40;101826.53;;;8.62;65.66
62895;BME280;49204;44.916;37.998;2022-10-16T00:46:38;101831.38;;;8.61;65.59
62895;BME280;49204;44.916;37.998;2022-10-16T00:49:19;101834.02;;;8.60;65.55
62895;BME280;49204;44.916;37.998;2022-10-16T00:51:51;101837.50;;;8.60;65.56
62895;BME280;49204;44.916;37.998;2022-10-16T00:54:26;101838.34;;;8.62;65.52
62895;BME280;49204;44.916;37.998;2022-10-16T00:56:56;101836.11;;;8.65;65.44
62895;BME280;49204;44.916;37.998;2022-10-16T00:59:29;101839.62;;;8.67;65.31
62895;BME280;49204;44.916;37.998;2022-10-16T01:01:59;101836.11;;;8.65;65.36
62895;BME280;49204;44.916;37.998;2022-10-16T01:04:36;101837.86;;;8.66;65.38
62895;BME280;49204;44.916;37.998;2022-10-16T01:15:18;101835.61;;;8.70;65.33
62895;BME280;49204;44.916;37.998;2022-10-16T01:18:00;101834.36;;;8.67;65.41
62895;BME280;49204;44.916;37.998;2022-10-16T01:20:37;101840.02;;;8.68;65.34
62895;BME280;49204;44.916;37.998;2022-10-16T01:23:21;101840.47;;;8.67;65.36
62895;BME280;49204;44.916;37.998;2022-10-16T01:26:13;101833.48;;;8.65;65.47
62895;BME280;49204;44.916;37.998;2022-10-16T01:29:00;101836.58;;;8.63;65.58
62895;BME280;49204;44.916;37.998;2022-10-16T01:31:29;101834.42;;;8.61;65.60
62895;BME280;49204;44.916;37.998;2022-10-16T01:34:17;101839.67;;;8.61;65.68
62895;BME280;49204;44.916;37.998;2022-10-16T01:36:49;101834.42;;;8.61;65.77
62895;BME280;49204;44.916;37.998;2022-10-16T01:39:19;101839.69;;;8.59;65.87
62895;BME280;49204;44.916;37.998;2022-10-16T01:41:54;101841.91;;;8.58;65.99
62895;BME280;49204;44.916;37.998;2022-10-16T01:44:31;101846.70;;;8.59;66.06
62895;BME280;49204;44.916;37.998;2022-10-16T01:47:01;101848.45;;;8.60;66.02
62895;BME280;49204;44.916;37.998;2022-10-16T01:49:33;101842.30;;;8.61;65.99
62895;BME280;49204;44.916;37.998;2022-10-16T01:52:05;101843.61;;;8.61;66.01
62895;BME280;49204;44.916;37.998;2022-10-16T01:54:35;101840.98;;;8.61;66.07
62895;BME280;49204;44.916;37.998;2022-10-16T01:57:06;101846.22;;;8.62;66.08
62895;BME280;49204;44.916;37.998;2022-10-16T01:59:40;101844.90;;;8.64;66.00
62895;BME280;49204;44.916;37.998;2022-10-16T02:02:10;101851.43;;;8.67;65.94
62895;BME280;49204;44.916;37.998;2022-10-16T02:07:27;101840.86;;;8.70;65.79
62895;BME280;49204;44.916;37.998;2022-10-16T02:09:56;101846.95;;;8.74;65.73
62895;BME280;49204;44.916;37.998;2022-10-16T02:12:31;101841.23;;;8.74;65.63
62895;BME280;49204;44.916;37.998;2022-10-16T02:15:00;101837.73;;;8.75;65.58
62895;BME280;49204;44.916;37.998;2022-10-16T02:17:29;101845.59;;;8.77;65.50
62895;BME280;49204;44.916;37.998;2022-10-16T02:19:58;101845.61;;;8.75;65.56
62895;BME280;49204;44.916;37.998;2022-10-16T02:25:08;101858.73;;;8.77;65.62
62895;BME280;49204;44.916;37.998;2022-10-16T02:27:43;101856.97;;;8.77;65.61
62895;BME280;49204;44.916;37.998;2022-10-16T02:30:33;101859.19;;;8.76;65.55
62895;BME280;49204;44.916;37.998;2022-10-16T02:33:02;101858.75;;;8.75;65.67
62895;BME280;49204;44.916;37.998;2022-10-16T02:35:32;101852.21;;;8.72;65.71
62895;BME280;49204;44.916;37.998;2022-10-16T02:38:01;101860.53;;;8.73;65.62
62895;BME280;49204;44.916;37.998;2022-10-16T02:40:31;101855.27;;;8.73;65.58
62895;BME280;49204;44.916;37.998;2022-10-16T02:42:59;101856.59;;;8.73;65.58
62895;BME280;49204;44.916;37.998;2022-10-16T02:45:28;101861.86;;;8.72;65.50
62895;BME280;49204;44.916;37.998;2022-10-16T02:47:57;101861.41;;;8.72;65.45
62895;BME280;49204;44.916;37.998;2022-10-16T02:50:26;101854.41;;;8.73;65.41
62895;BME280;49204;44.916;37.998;2022-10-16T02:52:55;101859.67;;;8.73;65.40
62895;BME280;49204;44.916;37.998;2022-10-16T02:55:24;101865.81;;;8.70;65.45
62895;BME280;49204;44.916;37.998;2022-10-16T02:57:53;101864.09;;;8.69;65.57
62895;BME280;49204;44.916;37.998;2022-10-16T03:00:22;101864.50;;;8.70;65.53
62895;BME280;49204;44.916;37.998;2022-10-16T03:02:51;101867.97;;;8.72;65.55
62895;BME280;49204;44.916;37.998;2022-10-16T03:05:20;101866.25;;;8.71;65.59
62895;BME280;49204;44.916;37.998;2022-10-16T03:07:49;101874.06;;;8.74;65.56
62895;BME280;49204;44.916;37.998;2022-10-16T03:10:18;101875.83;;;8.74;65.54
62895;BME280;49204;44.916;37.998;2022-10-16T03:12:47;101873.66;;;8.73;65.49
62895;BME280;49204;44.916;37.998;2022-10-16T03:15:15;101879.77;;;8.74;65.48
62895;BME280;49204;44.916;37.998;2022-10-16T03:17:44;101874.53;;;8.72;65.48
62895;BME280;49204;44.916;37.998;2022-10-16T03:20:13;101874.13;;;8.71;65.43
62895;BME280;49204;44.916;37.998;2022-10-16T03:22:42;101874.59;;;8.69;65.44
62895;BME280;49204;44.916;37.998;2022-10-16T03:25:11;101872.44;;;8.67;65.42
62895;BME280;49204;44.916;37.998;2022-10-16T03:27:40;101871.13;;;8.67;65.43
62895;BME280;49204;44.916;37.998;2022-10-16T03:30:10;101872.84;;;8.68;65.42
62895;BME280;49204;44.916;37.998;2022-10-16T03:32:38;101873.75;;;8.67;65.48
62895;BME280;49204;44.916;37.998;2022-10-16T03:35:07;101879.00;;;8.67;65.57
62895;BME280;49204;44.916;37.998;2022-10-16T03:37:36;101880.70;;;8.69;65.52
62895;BME280;49204;44.916;37.998;2022-10-16T03:40:05;101871.97;;;8.69;65.46
62895;BME280;49204;44.916;37.998;2022-10-16T03:42:34;101875.45;;;8.69;65.41
62895;BME280;49204;44.916;37.998;2022-10-16T03:45:04;101878.94;;;8.70;65.45
62895;BME280;49204;44.916;37.998;2022-10-16T03:47:32;101878.53;;;8.69;65.43
62895;BME280;49204;44.916;37.998;2022-10-16T03:50:01;101879.38;;;8.71;65.41
62895;BME280;49204;44.916;37.998;2022-10-16T03:52:30;101878.94;;;8.70;65.50
62895;BME280;49204;44.916;37.998;2022-10-16T03:54:59;101880.69;;;8.71;65.44
62895;BME280;49204;44.916;37.998;2022-10-16T03:57:28;101882.88;;;8.70;65.39
62895;BME280;49204;44.916;37.998;2022-10-16T03:59:57;101876.75;;;8.71;65.36
62895;BME280;49204;44.916;37.998;2022-10-16T04:02:25;101882.41;;;8.72;65.33
62895;BME280;49204;44.916;37.998;2022-10-16T04:04:54;101876.28;;;8.73;65.27
62895;BME280;49204;44.916;37.998;2022-10-16T04:07:23;101878.89;;;8.75;65.22
62895;BME280;49204;44.916;37.998;2022-10-16T04:09:52;101885.01;;;8.75;65.19
62895;BME280;49204;44.916;37.998;2022-10-16T04:12:21;101879.30;;;8.76;65.17
62895;BME280;49204;44.916;37.998;2022-10-16T04:14:49;101885.01;;;8.75;65.14
62895;BME280;49204;44.916;37.998;2022-10-16T04:17:18;101888.07;;;8.76;65.13
62895;BME280;49204;44.916;37.998;2022-10-16T04:19:47;101888.50;;;8.74;65.14
62895;BME280;49204;44.916;37.998;2022-10-16T04:22:16;101892.01;;;8.76;65.12
62895;BME280;49204;44.916;37.998;2022-10-16T04:24:44;101892.88;;;8.75;65.14
62895;BME280;49204;44.916;37.998;2022-10-16T04:27:13;101902.95;;;8.74;65.10
62895;BME280;49204;44.916;37.998;2022-10-16T04:29:42;101902.52;;;8.76;65.08
62895;BME280;49204;44.916;37.998;2022-10-16T04:32:11;101907.77;;;8.76;65.07
62895;BME280;49204;44.916;37.998;2022-10-16T04:34:40;101909.03;;;8.78;65.01
62895;BME280;49204;44.916;37.998;2022-10-16T04:37:09;101912.95;;;8.79;65.03
62895;BME280;49204;44.916;37.998;2022-10-16T04:39:37;101909.48;;;8.77;65.01
62895;BME280;49204;44.916;37.998;2022-10-16T04:42:06;101922.62;;;8.77;65.00
62895;BME280;49204;44.916;37.998;2022-10-16T04:44:35;101921.74;;;8.78;64.97
62895;BME280;49204;44.916;37.998;2022-10-16T04:47:04;101923.46;;;8.79;64.98
62895;BME280;49204;44.916;37.998;2022-10-16T04:49:33;101923.84;;;8.83;64.96
62895;BME280;49204;44.916;37.998;2022-10-16T04:52:01;101926.03;;;8.85;64.95
62895;BME280;49204;44.916;37.998;2022-10-16T04:54:31;101926.88;;;8.87;64.92
62895;BME280;49204;44.916;37.998;2022-10-16T04:57:00;101925.09;;;8.89;64.98
62895;BME280;49204;44.916;37.998;2022-10-16T04:59:29;101928.97;;;8.93;64.99
62895;BME280;49204;44.916;37.998;2022-10-16T05:01:58;101931.18;;;8.93;64.95
62895;BME280;49204;44.916;37.998;2022-10-16T05:04:26;101936.81;;;8.97;64.94
62895;BME280;49204;44.916;37.998;2022-10-16T05:06:55;101930.63;;;9.00;64.92
62895;BME280;49204;44.916;37.998;2022-10-16T05:09:24;101936.30;;;9.04;64.88
62895;BME280;49204;44.916;37.998;2022-10-16T05:11:53;101932.73;;;9.08;64.88
62895;BME280;49204;44.916;37.998;2022-10-16T05:14:21;101929.63;;;9.10;64.83
62895;BME280;49204;44.916;37.998;2022-10-16T05:16:50;101931.80;;;9.12;64.82
62895;BME280;49204;44.916;37.998;2022-10-16T05:19:19;101934.38;;;9.17;64.81
62895;BME280;49204;44.916;37.998;2022-10-16T05:21:48;101936.08;;;9.19;64.77
62895;BME280;49204;44.916;37.998;2022-10-16T05:24:17;101935.60;;;9.21;64.77
62895;BME280;49204;44.916;37.998;2022-10-16T05:26:46;101936.45;;;9.23;64.71
62895;BME280;49204;44.916;37.998;2022-10-16T05:29:15;101942.55;;;9.25;64.66
62895;BME280;49204;44.916;37.998;2022-10-16T05:31:43;101949.06;;;9.30;64.65
62895;BME280;49204;44.916;37.998;2022-10-16T05:34:12;101951.20;;;9.34;64.62
62895;BME280;49204;44.916;37.998;2022-10-16T05:36:41;101953.33;;;9.39;64.57
62895;BME280;49204;44.916;37.998;2022-10-16T05:39:13;101950.66;;;9.40;64.51
62895;BME280;49204;44.916;37.998;2022-10-16T05:41:42;101952.38;;;9.43;64.50
62895;BME280;49204;44.916;37.998;2022-10-16T05:44:11;101953.23;;;9.45;64.45
62895;BME280;49204;44.916;37.998;2022-10-16T05:46:40;101947.48;;;9.49;64.46
62895;BME280;49204;44.916;37.998;2022-10-16T05:49:09;101946.97;;;9.54;64.49
62895;BME280;49204;44.916;37.998;2022-10-16T05:51:38;101942.09;;;9.56;64.45
62895;BME280;49204;44.916;37.998;2022-10-16T05:54:06;101936.73;;;9.62;64.42
62895;BME280;49204;44.916;37.998;2022-10-16T05:56:35;101942.68;;;9.74;64.35
62895;BME280;49204;44.916;37.998;2022-10-16T05:59:05;101946.95;;;9.81;64.32
62895;BME280;49204;44.916;37.998;2022-10-16T06:01:34;101949.89;;;9.90;64.22
62895;BME280;49204;44.916;37.998;2022-10-16T06:04:03;101951.52;;;9.97;64.17
62895;BME280;49204;44.916;37.998;2022-10-16T06:06:32;101958.87;;;10.03;64.10
62895;BME280;49204;44.916;37.998;2022-10-16T06:09:00;101954.03;;;10.03;64.06
62895;BME280;49204;44.916;37.998;2022-10-16T06:11:31;101963.66;;;10.05;64.03
62895;BME280;49204;44.916;37.998;2022-10-16T06:14:02;101958.32;;;10.09;64.00
62895;BME280;49204;44.916;37.998;2022-10-16T06:16:33;101963.54;;;10.12;64.01
62895;BME280;49204;44.916;37.998;2022-10-16T06:19:03;101964.36;;;10.15;64.03
62895;BME280;49204;44.916;37.998;2022-10-16T06:21:33;101965.61;;;10.20;63.99
62895;BME280;49204;44.916;37.998;2022-10-16T06:24:02;101965.89;;;10.27;63.94
62895;BME280;49204;44.916;37.998;2022-10-16T06:26:31;101971.08;;;10.35;63.97
62895;BME280;49204;44.916;37.998;2022-10-16T06:29:00;101964.83;;;10.40;63.89
62895;BME280;49204;44.916;37.998;2022-10-16T06:31:29;101962.04;;;10.48;63.84
62895;BME280;49204;44.916;37.998;2022-10-16T06:34:00;101958.38;;;10.57;63.78
62895;BME280;49204;44.916;37.998;2022-10-16T06:36:29;101952.05;;;10.64;63.67
62895;BME280;49204;44.916;37.998;2022-10-16T06:38:58;101949.67;;;10.74;63.55
62895;BME280;49204;44.916;37.998;2022-10-16T06:41:27;101946.41;;;10.82;63.45
62895;BME280;49204;44.916;37.998;2022-10-16T06:43:57;101943.20;;;10.89;63.42
62895;BME280;49204;44.916;37.998;2022-10-16T06:46:26;101940.49;;;10.94;63.30
62895;BME280;49204;44.916;37.998;2022-10-16T06:48:55;101938.09;;;11.03;63.25
62895;BME280;49204;44.916;37.998;2022-10-16T06:51:25;101938.26;;;11.16;63.25
62895;BME280;49204;44.916;37.998;2022-10-16T06:53:55;101944.18;;;11.26;63.03
62895;BME280;49204;44.916;37.998;2022-10-16T06:56:27;101945.34;;;11.32;62.83
62895;BME280;49204;44.916;37.998;2022-10-16T06:58:58;101944.73;;;11.40;62.78
62895;BME280;49204;44.916;37.998;2022-10-16T07:01:27;101943.20;;;11.49;62.77
62895;BME280;49204;44.916;37.998;2022-10-16T07:03:57;101943.38;;;11.59;62.71
62895;BME280;49204;44.916;37.998;2022-10-16T07:06:26;101948.01;;;11.69;62.66
62895;BME280;49204;44.916;37.998;2022-10-16T07:08:55;101948.77;;;11.73;62.48
62895;BME280;49204;44.916;37.998;2022-10-16T07:11:24;101951.31;;;11.77;62.41
62895;BME280;49204;44.916;37.998;2022-10-16T07:13:53;101945.05;;;11.82;62.37
62895;BME280;49204;44.916;37.998;2022-10-16T07:16:24;101952.03;;;11.84;62.20
62895;BME280;49204;44.916;37.998;2022-10-16T07:19:01;101951.44;;;11.91;62.15
62895;BME280;49204;44.916;37.998;2022-10-16T07:21:32;101952.06;;;12.01;62.10
62895;BME280;49204;44.916;37.998;2022-10-16T07:24:04;101956.78;;;12.06;62.03
62895;BME280;49204;44.916;37.998;2022-10-16T07:26:35;101951.36;;;12.12;61.97
62895;BME280;49204;44.916;37.998;2022-10-16T07:29:12;101956.80;;;12.22;61.93
62895;BME280;49204;44.916;37.998;2022-10-16T07:31:37;101957.05;;;12.29;61.89
62895;BME280;49204;44.916;37.998;2022-10-16T07:34:08;101955.23;;;12.31;61.87
62895;BME280;49204;44.916;37.998;2022-10-16T07:36:36;101959.59;;;12.34;61.77
62895;BME280;49204;44.916;37.998;2022-10-16T07:39:05;101958.80;;;12.30;61.80
62895;BME280;49204;44.916;37.998;2022-10-16T07:41:34;101956.16;;;12.30;61.83
62895;BME280;49204;44.916;37.998;2022-10-16T07:44:04;101968.05;;;12.30;61.89
62895;BME280;49204;44.916;37.998;2022-10-16T07:46:34;101972.40;;;12.31;61.86
62895;BME280;49204;44.916;37.998;2022-10-16T07:49:03;101970.61;;;12.32;61.92
62895;BME280;49204;44.916;37.998;2022-10-16T07:51:32;101964.08;;;12.30;61.94
62895;BME280;49204;44.916;37.998;2022-10-16T07:54:01;101959.52;;;12.35;61.94
62895;BME280;49204;44.916;37.998;2022-10-16T07:56:31;101970.01;;;12.39;61.91
62895;BME280;49204;44.916;37.998;2022-10-16T07:59:00;101969.19;;;12.36;61.92
62895;BME280;49204;44.916;37.998;2022-10-16T08:01:29;101966.08;;;12.37;61.94
62895;BME280;49204;44.916;37.998;2022-10-16T08:03:57;101961.91;;;12.45;61.96
62895;BME280;49204;44.916;37.998;2022-10-16T08:06:26;101960.26;;;12.57;61.96
62895;BME280;49204;44.916;37.998;2022-10-16T08:08:55;101961.64;;;12.70;61.86
62895;BME280;49204;44.916;37.998;2022-10-16T08:11:24;101969.66;;;12.84;61.71
62895;BME280;49204;44.916;37.998;2022-10-16T08:13:53;101967.98;;;12.94;61.57
62895;BME280;49204;44.916;37.998;2022-10-16T08:16:22;101970.01;;;13.01;61.46
62895;BME280;49204;44.916;37.998;2022-10-16T08:18:50;101962.03;;;13.03;61.51
62895;BME280;49204;44.916;37.998;2022-10-16T08:21:22;101970.23;;;12.93;61.63
62895;BME280;49204;44.916;37.998;2022-10-16T08:23:52;101966.63;;;12.81;61.76
62895;BME280;49204;44.916;37.998;2022-10-16T08:26:22;101967.66;;;12.75;61.83
62895;BME280;49204;44.916;37.998;2022-10-16T08:28:52;101970.34;;;12.74;61.92
62895;BME280;49204;44.916;37.998;2022-10-16T08:31:21;101967.01;;;12.84;61.90
62895;BME280;49204;44.916;37.998;2022-10-16T08:33:50;101962.12;;;13.00;61.89
62895;BME280;49204;44.916;37.998;2022-10-16T08:36:19;101968.22;;;13.17;61.92
62895;BME280;49204;44.916;37.998;2022-10-16T08:38:49;101966.95;;;13.30;61.81
62895;BME280;49204;44.916;37.998;2022-10-16T08:41:26;101967.31;;;13.47;61.67
62895;BME280;49204;44.916;37.998;2022-10-16T08:44:21;101968.38;;;13.83;61.46
62895;BME280;49204;44.916;37.998;2022-10-16T08:46:54;101964.53;;;14.19;60.99
62895;BME280;49204;44.916;37.998;2022-10-16T08:49:21;101966.66;;;14.59;60.38
62895;BME280;49204;44.916;37.998;2022-10-16T08:51:52;101963.72;;;14.79;59.68
62895;BME280;49204;44.916;37.998;2022-10-16T08:54:31;101963.39;;;14.76;59.34
62895;BME280;49204;44.916;37.998;2022-10-16T08:56:57;101969.97;;;15.01;59.17
62895;BME280;49204;44.916;37.998;2022-10-16T08:59:27;101962.45;;;15.47;58.61
62895;BME280;49204;44.916;37.998;2022-10-16T09:01:56;101960.34;;;16.09;57.63
62895;BME280;49204;44.916;37.998;2022-10-16T09:12:48;101952.61;;;18.56;51.88
62895;BME280;49204;44.916;37.998;2022-10-16T09:15:40;101949.36;;;19.32;50.63
62895;BME280;49204;44.916;37.998;2022-10-16T09:23:30;101955.41;;;18.28;51.85
62895;BME280;49204;44.916;37.998;2022-10-16T09:25:59;101955.63;;;18.14;52.15
62895;BME280;49204;44.916;37.998;2022-10-16T09:28:28;101945.11;;;18.71;51.60
62895;BME280;49204;44.916;37.998;2022-10-16T09:30:57;101945.44;;;19.46;50.52
62895;BME280;49204;44.916;37.998;2022-10-16T09:33:32;101939.53;;;19.94;49.31
62895;BME280;49204;44.916;37.998;2022-10-16T09:36:00;101940.25;;;20.12;47.94
62895;BME280;49204;44.916;37.998;2022-10-16T09:38:36;101944.96;;;20.52;48.01
62895;BME280;49204;44.916;37.998;2022-10-16T09:41:14;101932.17;;;20.78;47.57
62895;BME280;49204;44.916;37.998;2022-10-16T09:44:00;101935.99;;;20.89;46.92
62895;BME280;49204;44.916;37.998;2022-10-16T09:46:34;101923.74;;;20.49;46.71
62895;BME280;49204;44.916;37.998;2022-10-16T09:49:27;101923.95;;;20.74;46.78
62895;BME280;49204;44.916;37.998;2022-10-16T09:51:37;101909.81;;;20.79;46.45
62895;BME280;49204;44.916;37.998;2022-10-16T09:56:41;101908.16;;;20.91;46.22
62895;BME280;49204;44.916;37.998;2022-10-16T09:59:22;101911.31;;;20.91;46.79
62895;BME280;49204;44.916;37.998;2022-10-16T10:01:54;101911.70;;;20.41;47.41
62895;BME280;49204;44.916;37.998;2022-10-16T10:04:25;101906.83;;;20.41;47.52
62895;BME280;49204;44.916;37.998;2022-10-16T10:06:56;101907.72;;;20.70;46.96
62895;BME280;49204;44.916;37.998;2022-10-16T10:09:36;101898.92;;;21.10;46.53
62895;BME280;49204;44.916;37.998;2022-10-16T10:12:04;101896.08;;;21.47;45.95
62895;BME280;49204;44.916;37.998;2022-10-16T10:14:48;101890.09;;;21.76;45.33
62895;BME280;49204;44.916;37.998;2022-10-16T10:17:28;101895.07;;;22.47;44.87
62895;BME280;49204;44.916;37.998;2022-10-16T10:20:00;101897.05;;;22.82;44.03
62895;BME280;49204;44.916;37.998;2022-10-16T10:22:39;101896.15;;;22.63;43.60
62895;BME280;49204;44.916;37.998;2022-10-16T10:25:31;101895.08;;;21.88;44.08
62895;BME280;49204;44.916;37.998;2022-10-16T10:34:04;101892.88;;;20.57;47.49
62895;BME280;49204;44.916;37.998;2022-10-16T10:36:34;101889.54;;;20.47;47.89
62895;BME280;49204;44.916;37.998;2022-10-16T10:39:25;101884.97;;;20.27;48.28
62895;BME280;49204;44.916;37.998;2022-10-16T10:44:42;101882.48;;;19.26;50.69
62895;BME280;49204;44.916;37.998;2022-10-16T10:47:37;101884.73;;;18.77;51.92
62895;BME280;49204;44.916;37.998;2022-10-16T10:58:24;101878.74;;;18.40;53.92
62895;BME280;49204;44.916;37.998;2022-10-16T11:00:57;101891.52;;;18.42;54.29
62895;BME280;49204;44.916;37.998;2022-10-16T11:06:18;101888.62;;;17.96;55.33
62895;BME280;49204;44.916;37.998;2022-10-16T11:08:55;101890.83;;;17.88;55.86
62895;BME280;49204;44.916;37.998;2022-10-16T11:11:41;101888.61;;;17.79;56.29
62895;BME280;49204;44.916;37.998;2022-10-16T11:14:19;101890.02;;;17.77;56.56
62895;BME280;49204;44.916;37.998;2022-10-16T11:17:01;101888.05;;;17.81;56.73
62895;BME280;49204;44.916;37.998;2022-10-16T11:19:49;101883.51;;;17.83;56.90
62895;BME280;49204;44.916;37.998;2022-10-16T11:22:19;101892.61;;;17.79;57.22
62895;BME280;49204;44.916;37.998;2022-10-16T11:27:54;101890.73;;;17.63;57.57
62895;BME280;49204;44.916;37.998;2022-10-16T11:30:26;101888.99;;;17.62;57.68
62895;BME280;49204;44.916;37.998;2022-10-16T11:38:36;101895.49;;;17.56;58.02
62895;BME280;49204;44.916;37.998;2022-10-16T11:41:27;101889.45;;;17.53;58.19
62895;BME280;49204;44.916;37.998;2022-10-16T11:46:53;101890.77;;;17.44;58.78
62895;BME280;49204;44.916;37.998;2022-10-16T11:49:25;101893.50;;;17.43;58.81
62895;BME280;49204;44.916;37.998;2022-10-16T11:54:39;101889.50;;;17.43;58.89
62895;BME280;49204;44.916;37.998;2022-10-16T11:57:17;101893.50;;;17.43;59.08
62895;BME280;49204;44.916;37.998;2022-10-16T11:59:50;101906.03;;;17.41;59.18
62895;BME280;49204;44.916;37.998;2022-10-16T12:05:27;101907.91;;;17.39;59.25
62895;BME280;49204;44.916;37.998;2022-10-16T12:08:04;101909.09;;;17.42;59.25
62895;BME280;49204;44.916;37.998;2022-10-16T12:10:35;101905.75;;;17.47;59.28
62895;BME280;49204;44.916;37.998;2022-10-16T12:13:27;101903.80;;;17.50;59.17
62895;BME280;49204;44.916;37.998;2022-10-16T12:15:35;101908.09;;;17.53;59.09
62895;BME280;49204;44.916;37.998;2022-10-16T12:18:07;101907.41;;;17.58;59.07
62895;BME280;49204;44.916;37.998;2022-10-16T12:20:34;101916.66;;;17.60;58.97
62895;BME280;49204;44.916;37.998;2022-10-16T12:23:06;101920.03;;;17.63;58.98
62895;BME280;49204;44.916;37.998;2022-10-16T12:25:37;101921.73;;;17.64;58.96
62895;BME280;49204;44.916;37.998;2022-10-16T12:28:21;101919.62;;;17.62;58.87
62895;BME280;49204;44.916;37.998;2022-10-16T12:30:58;101926.28;;;17.62;58.87
62895;BME280;49204;44.916;37.998;2022-10-16T12:33:59;101928.84;;;17.55;58.79
62895;BME280;49204;44.916;37.998;2022-10-16T12:36:38;101927.28;;;17.51;58.91
62895;BME280;49204;44.916;37.998;2022-10-16T12:39:16;101928.76;;;17.48;59.02
62895;BME280;49204;44.916;37.998;2022-10-16T12:41:39;101938.25;;;17.45;59.11
62895;BME280;49204;44.916;37.998;2022-10-16T12:44:24;101941.83;;;17.44;59.25
62895;BME280;49204;44.916;37.998;2022-10-16T12:46:54;101935.72;;;17.42;59.27
62895;BME280;49204;44.916;37.998;2022-10-16T12:49:31;101940.91;;;17.45;59.32
62895;BME280;49204;44.916;37.998;2022-10-16T12:52:01;101944.42;;;17.45;59.38
62895;BME280;49204;44.916;37.998;2022-10-16T12:59:46;101943.40;;;17.48;59.42
62895;BME280;49204;44.916;37.998;2022-10-16T13:14:03;101957.57;;;17.40;59.52
62895;BME280;49204;44.916;37.998;2022-10-16T13:24:51;101955.63;;;17.24;59.64
62895;BME280;49204;44.916;37.998;2022-10-16T13:29:54;101965.66;;;17.19;59.62
62895;BME280;49204;44.916;37.998;2022-10-16T13:32:24;101959.51;;;17.17;59.56
62895;BME280;49204;44.916;37.998;2022-10-16T13:34:52;101965.78;;;17.16;59.59
62895;BME280;49204;44.916;37.998;2022-10-16T13:37:24;101969.78;;;17.16;59.56
62895;BME280;49204;44.916;37.998;2022-10-16T13:40:17;101981.82;;;17.14;59.50
62895;BME280;49204;44.916;37.998;2022-10-16T13:42:39;101974.86;;;17.12;59.51
62895;BME280;49204;44.916;37.998;2022-10-16T13:45:23;101974.98;;;17.09;59.59
62895;BME280;49204;44.916;37.998;2022-10-16T13:48:17;101967.92;;;17.08;59.57
62895;BME280;49204;44.916;37.998;2022-10-16T13:51:27;101973.41;;;17.05;59.50
62895;BME280;49204;44.916;37.998;2022-10-16T13:53:33;101973.95;;;17.03;59.57
62895;BME280;49204;44.916;37.998;2022-10-16T13:56:05;101979.00;;;16.98;59.66
62895;BME280;49204;44.916;37.998;2022-10-16T13:58:34;101975.17;;;16.95;59.77
62895;BME280;49204;44.916;37.998;2022-10-16T14:01:05;101974.83;;;16.93;59.90
62895;BME280;49204;44.916;37.998;2022-10-16T14:03:35;101973.19;;;16.90;60.04
62895;BME280;49204;44.916;37.998;2022-10-16T14:06:05;101980.44;;;16.87;60.11
62895;BME280;49204;44.916;37.998;2022-10-16T14:08:36;101984.05;;;16.86;60.17
62895;BME280;49204;44.916;37.998;2022-10-16T14:11:06;101986.36;;;16.83;60.19
62895;BME280;49204;44.916;37.998;2022-10-16T14:13:45;101988.20;;;16.81;60.24
62895;BME280;49204;44.916;37.998;2022-10-16T14:16:23;101982.09;;;16.79;60.30
62895;BME280;49204;44.916;37.998;2022-10-16T14:18:59;101978.70;;;16.75;60.43
62895;BME280;49204;44.916;37.998;2022-10-16T14:21:29;101989.53;;;16.71;60.49
62895;BME280;49204;44.916;37.998;2022-10-16T14:23:59;101985.30;;;16.67;60.63
62895;BME280;49204;44.916;37.998;2022-10-16T14:26:29;101986.78;;;16.64;60.77
62895;BME280;49204;44.916;37.998;2022-10-16T14:29:15;101980.33;;;16.59;60.90
62895;BME280;49204;44.916;37.998;2022-10-16T14:32:01;101989.76;;;16.56;60.88
62895;BME280;49204;44.916;37.998;2022-10-16T14:34:35;101994.34;;;16.52;61.00
62895;BME280;49204;44.916;37.998;2022-10-16T14:37:30;102000.73;;;16.48;61.07
62895;BME280;49204;44.916;37.998;2022-10-16T14:40:00;101993.83;;;16.44;61.09
62895;BME280;49204;44.916;37.998;2022-10-16T14:42:30;102001.55;;;16.40;61.23
62895;BME280;49204;44.916;37.998;2022-10-16T14:44:59;102004.39;;;16.35;61.34